createdAt,value
2022-10-17T00:01:59.190Z,101596.45
2022-10-17T00:04:49.053Z,101599.98
2022-10-17T00:07:39.043Z,101600.00
2022-10-17T00:10:28.992Z,101605.14
2022-10-17T00:13:19.014Z,101605.57
2022-10-17T00:16:10.681Z,101603.53
2022-10-17T00:19:00.579Z,101603.03
2022-10-17T00:21:51.222Z,101613.35
2022-10-17T00:24:41.322Z,101616.20
2022-10-17T00:27:31.171Z,101615.04
2022-10-17T00:30:21.298Z,101612.83
2022-10-17T00:33:11.921Z,101614.33
2022-10-17T00:36:07.658Z,101609.83
2022-10-17T00:38:59.603Z,101610.20
2022-10-17T00:41:49.506Z,101606.34
2022-10-17T00:45:20.785Z,101611.83
2022-10-17T00:48:10.968Z,101615.89
2022-10-17T00:51:00.981Z,101616.23
2022-10-17T00:53:51.284Z,101618.13
2022-10-17T00:56:41.198Z,101615.33
2022-10-17T00:59:31.143Z,101611.71
2022-10-17T01:02:22.282Z,101605.31
2022-10-17T01:05:12.431Z,101614.23
2022-10-17T01:08:02.316Z,101613.66
2022-10-17T01:11:01.044Z,101617.20
2022-10-17T01:13:53.491Z,101621.65
2022-10-17T01:16:51.564Z,101624.48
2022-10-17T01:19:58.466Z,101619.23
2022-10-17T01:22:51.804Z,101613.70
2022-10-17T01:25:48.964Z,101612.50
2022-10-17T01:28:57.896Z,101612.77
2022-10-17T01:31:51.018Z,101610.86
2022-10-17T01:34:46.671Z,101612.14
2022-10-17T01:37:42.752Z,101623.63
2022-10-17T01:40:35.816Z,101628.64
2022-10-17T01:43:28.212Z,101634.11
2022-10-17T01:46:22.107Z,101640.85
2022-10-17T01:49:13.128Z,101640.00
2022-10-17T01:52:06.384Z,101638.92
2022-10-17T01:54:59.160Z,101641.06
2022-10-17T01:57:50.832Z,101646.05
2022-10-17T02:00:42.138Z,101645.45
2022-10-17T02:03:33.890Z,101643.69
2022-10-17T02:06:23.788Z,101646.15
2022-10-17T02:09:22.913Z,101653.11
2022-10-17T02:12:24.366Z,101646.58
2022-10-17T02:15:58.742Z,101639.80
2022-10-17T02:19:16.089Z,101633.46
2022-10-17T02:22:18.304Z,101641.66
2022-10-17T02:25:14.274Z,101644.67
2022-10-17T02:28:16.339Z,101641.12
2022-10-17T02:31:10.117Z,101637.06
2022-10-17T02:34:02.349Z,101632.27
2022-10-17T02:36:54.867Z,101635.82
2022-10-17T02:39:44.920Z,101643.11
2022-10-17T02:42:34.936Z,101646.61
2022-10-17T02:45:27.211Z,101649.29
2022-10-17T02:48:19.816Z,101650.70
2022-10-17T02:51:14.761Z,101647.67
2022-10-17T02:54:09.404Z,101648.16
2022-10-17T02:57:08.761Z,101651.73
2022-10-17T03:00:00.006Z,101655.27
2022-10-17T03:02:51.539Z,101656.71
2022-10-17T03:05:41.476Z,101668.92
2022-10-17T03:08:31.406Z,101664.92
2022-10-17T03:11:21.634Z,101667.05
2022-10-17T03:14:13.990Z,101681.73
2022-10-17T03:17:04.278Z,101688.36
2022-10-17T03:19:55.777Z,101691.35
2022-10-17T03:22:45.732Z,101691.41
2022-10-17T03:25:36.177Z,101681.13
2022-10-17T03:28:27.404Z,101677.90
2022-10-17T03:31:18.028Z,101680.40
2022-10-17T03:34:08.593Z,101686.41
2022-10-17T03:36:58.863Z,101686.63
2022-10-17T03:39:49.689Z,101688.38
2022-10-17T03:42:39.896Z,101695.67
2022-10-17T03:45:30.099Z,101700.63
2022-10-17T03:48:20.170Z,101704.10
2022-10-17T03:51:10.987Z,101709.88
2022-10-17T03:54:05.471Z,101707.46
2022-10-17T03:57:00.304Z,101711.55
2022-10-17T03:59:52.211Z,101712.58
2022-10-17T04:02:44.461Z,101709.39
2022-10-17T04:05:44.591Z,101710.99
2022-10-17T04:08:34.921Z,101713.16
2022-10-17T04:11:37.131Z,101719.91
2022-10-17T04:14:27.171Z,101722.13
2022-10-17T04:17:17.443Z,101725.46
2022-10-17T04:20:10.368Z,101726.80
2022-10-17T04:23:00.992Z,101723.93
2022-10-17T04:25:51.201Z,101735.61
2022-10-17T04:28:41.264Z,101736.89
2022-10-17T04:31:31.450Z,101739.05
2022-10-17T04:34:27.428Z,101742.45
2022-10-17T04:37:17.641Z,101744.05
2022-10-17T04:40:11.424Z,101748.63
2022-10-17T04:43:01.847Z,101753.80
2022-10-17T04:45:58.399Z,101750.57
2022-10-17T04:48:48.370Z,101741.68
2022-10-17T04:51:38.480Z,101729.25
2022-10-17T04:54:41.729Z,101725.38
2022-10-17T04:57:36.096Z,101718.96
2022-10-17T05:00:33.297Z,101720.25
2022-10-17T05:03:43.713Z,101725.89
2022-10-17T05:06:34.841Z,101728.55
2022-10-17T05:09:47.991Z,101727.70
2022-10-17T05:12:38.228Z,101733.66
2022-10-17T05:15:54.509Z,101725.73
2022-10-17T05:18:45.919Z,101728.36
2022-10-17T05:21:42.534Z,101734.39
2022-10-17T05:24:50.087Z,101741.28
2022-10-17T05:27:40.493Z,101742.02
2022-10-17T05:30:37.468Z,101743.68
2022-10-17T05:33:29.468Z,101751.17
2022-10-17T05:36:24.461Z,101751.67
2022-10-17T05:39:22.583Z,101757.98
2022-10-17T05:42:13.258Z,101754.59
2022-10-17T05:45:03.473Z,101755.98
2022-10-17T05:47:53.924Z,101772.66
2022-10-17T05:50:44.433Z,101779.78
2022-10-17T05:53:40.811Z,101781.97
2022-10-17T05:56:34.061Z,101789.38
2022-10-17T05:59:26.181Z,101791.90
2022-10-17T06:02:37.305Z,101790.67
2022-10-17T06:05:28.681Z,101790.14
2022-10-17T06:08:19.493Z,101792.63
2022-10-17T06:11:10.533Z,101787.88
2022-10-17T06:14:02.644Z,101789.10
2022-10-17T06:16:53.594Z,101783.44
2022-10-17T06:19:47.129Z,101793.50
2022-10-17T06:22:38.414Z,101791.00
2022-10-17T06:25:34.026Z,101800.05
2022-10-17T06:28:24.302Z,101806.68
2022-10-17T06:31:16.989Z,101813.07
2022-10-17T06:34:07.102Z,101816.97
2022-10-17T06:39:53.465Z,101825.42
2022-10-17T06:42:45.712Z,101827.31
2022-10-17T06:45:54.646Z,101831.04
2022-10-17T06:49:02.024Z,101830.84
2022-10-17T06:51:58.491Z,101827.68
2022-10-17T06:55:08.081Z,101834.05
2022-10-17T06:58:12.682Z,101841.43
2022-10-17T07:01:20.153Z,101846.90
2022-10-17T07:04:11.419Z,101848.66
2022-10-17T07:07:02.580Z,101848.73
2022-10-17T07:09:55.490Z,101848.10
2022-10-17T07:12:46.076Z,101849.13
2022-10-17T07:15:37.275Z,101849.10
2022-10-17T07:18:27.245Z,101849.65
2022-10-17T07:21:18.004Z,101852.30
2022-10-17T07:24:08.111Z,101858.48
2022-10-17T07:26:58.359Z,101856.86
2022-10-17T07:29:48.589Z,101856.69
2022-10-17T07:32:51.734Z,101857.83
2022-10-17T07:35:41.724Z,101858.02
2022-10-17T07:38:33.684Z,101856.19
2022-10-17T07:41:23.903Z,101857.84
2022-10-17T07:44:14.882Z,101862.52
2022-10-17T07:47:08.443Z,101865.80
2022-10-17T07:49:59.776Z,101865.16
2022-10-17T07:52:49.661Z,101867.71
2022-10-17T07:55:40.667Z,101864.74
2022-10-17T07:58:31.001Z,101863.84
2022-10-17T08:01:20.917Z,101857.98
2022-10-17T08:04:28.100Z,101857.82
2022-10-17T08:07:25.315Z,101855.16
2022-10-17T08:10:19.364Z,101857.48
2022-10-17T08:13:09.756Z,101856.59
2022-10-17T08:16:02.188Z,101863.70
2022-10-17T08:18:52.393Z,101870.34
2022-10-17T08:21:44.332Z,101874.27
2022-10-17T08:24:34.627Z,101873.00
2022-10-17T08:27:28.393Z,101868.73
2022-10-17T08:30:18.917Z,101866.21
2022-10-17T08:33:08.975Z,101860.71
2022-10-17T08:36:00.950Z,101858.79
2022-10-17T08:38:53.008Z,101860.52
2022-10-17T08:41:54.276Z,101858.52
2022-10-17T08:44:52.027Z,101858.12
2022-10-17T08:47:43.568Z,101852.94
2022-10-17T08:50:37.260Z,101857.19
2022-10-17T08:53:31.346Z,101862.09
2022-10-17T08:56:44.149Z,101858.52
2022-10-17T08:59:35.024Z,101851.24
2022-10-17T09:02:45.934Z,101853.67
2022-10-17T09:05:55.468Z,101854.00
2022-10-17T09:08:56.179Z,101847.12
2022-10-17T09:11:58.149Z,101848.65
2022-10-17T09:15:10.595Z,101844.35
2022-10-17T09:18:03.911Z,101838.86
2022-10-17T09:20:55.496Z,101836.38
2022-10-17T09:23:49.459Z,101835.73
2022-10-17T09:26:40.882Z,101834.97
2022-10-17T09:29:36.972Z,101834.93
2022-10-17T09:32:29.906Z,101836.90
2022-10-17T09:35:21.287Z,101837.77
2022-10-17T09:38:18.736Z,101832.41
2022-10-17T09:44:33.041Z,101834.46
2022-10-17T09:47:29.595Z,101836.44
2022-10-17T09:50:25.165Z,101824.31
2022-10-17T09:53:21.087Z,101825.21
2022-10-17T09:56:15.471Z,101825.79
2022-10-17T09:59:07.564Z,101825.97
2022-10-17T10:02:27.330Z,101831.10
2022-10-17T10:05:20.473Z,101829.21
2022-10-17T10:08:17.497Z,101831.22
2022-10-17T10:11:13.467Z,101833.05
2022-10-17T10:14:13.200Z,101832.61
2022-10-17T10:17:05.425Z,101830.56
2022-10-17T10:19:55.705Z,101824.60
2022-10-17T10:22:45.893Z,101821.73
2022-10-17T10:25:36.916Z,101822.20
2022-10-17T10:28:29.473Z,101824.75
2022-10-17T10:31:28.293Z,101820.59
2022-10-17T10:34:21.695Z,101825.02
2022-10-17T10:37:19.982Z,101824.89
2022-10-17T10:40:19.017Z,101826.75
2022-10-17T10:43:21.273Z,101827.14
2022-10-17T10:46:20.218Z,101826.52
2022-10-17T10:49:30.146Z,101819.51
2022-10-17T10:52:29.636Z,101817.94
2022-10-17T10:55:29.492Z,101823.20
2022-10-17T10:58:32.771Z,101823.80
2022-10-17T11:01:29.382Z,101821.95
2022-10-17T11:04:29.977Z,101820.98
2022-10-17T11:07:23.163Z,101818.74
2022-10-17T11:10:19.070Z,101814.62
2022-10-17T11:13:14.227Z,101814.00
2022-10-17T11:16:26.055Z,101805.96
2022-10-17T11:19:20.835Z,101800.74
2022-10-17T11:22:15.109Z,101801.73
2022-10-17T11:25:14.848Z,101797.55
2022-10-17T11:28:13.304Z,101797.69
2022-10-17T11:31:07.851Z,101794.19
2022-10-17T11:34:01.600Z,101797.81
2022-10-17T11:36:56.797Z,101783.66
2022-10-17T11:39:50.619Z,101787.17
2022-10-17T11:42:46.043Z,101781.87
2022-10-17T11:45:40.733Z,101773.14
2022-10-17T11:48:34.336Z,101767.72
2022-10-17T11:54:37.866Z,101775.38
2022-10-17T11:57:49.222Z,101774.77
2022-10-17T12:00:50.265Z,101765.09
2022-10-17T12:04:12.896Z,101765.95
2022-10-17T12:07:12.690Z,101772.75
2022-10-17T12:10:15.127Z,101770.48
2022-10-17T12:13:57.419Z,101764.86
2022-10-17T12:16:47.999Z,101768.88
2022-10-17T12:19:38.501Z,101765.09
2022-10-17T12:22:29.987Z,101758.66
2022-10-17T12:25:22.947Z,101754.00
2022-10-17T12:32:16.856Z,101748.48
2022-10-17T12:35:18.892Z,101746.21
2022-10-17T12:38:23.316Z,101746.28
2022-10-17T12:41:13.845Z,101747.23
2022-10-17T12:44:07.090Z,101744.23
2022-10-17T12:47:07.515Z,101746.23
2022-10-17T12:49:57.664Z,101752.58
2022-10-17T12:53:01.685Z,101747.91
2022-10-17T12:55:54.050Z,101745.05
2022-10-17T12:58:47.009Z,101747.32
2022-10-17T13:01:39.075Z,101752.54
2022-10-17T13:04:29.154Z,101746.98
2022-10-17T13:07:22.093Z,101737.75
2022-10-17T13:10:22.653Z,101735.16
2022-10-17T13:13:20.038Z,101730.71
2022-10-17T13:16:10.265Z,101729.79
2022-10-17T13:19:01.840Z,101728.36
2022-10-17T13:21:55.785Z,101722.55
2022-10-17T13:24:46.205Z,101722.03
2022-10-17T13:27:37.291Z,101722.35
2022-10-17T13:30:32.060Z,101717.32
2022-10-17T13:33:37.378Z,101721.89
2022-10-17T13:36:27.850Z,101717.61
2022-10-17T13:39:32.396Z,101717.91
2022-10-17T13:42:32.308Z,101718.23
2022-10-17T13:45:28.594Z,101722.82
2022-10-17T13:48:22.668Z,101717.99
2022-10-17T13:51:13.603Z,101709.20
2022-10-17T13:54:04.085Z,101706.45
2022-10-17T13:56:58.298Z,101704.84
2022-10-17T13:59:49.481Z,101704.27
2022-10-17T14:02:42.120Z,101699.61
2022-10-17T14:05:32.736Z,101695.54
2022-10-17T14:08:23.821Z,101696.91
2022-10-17T14:11:22.358Z,101697.04
2022-10-17T14:14:19.170Z,101691.41
2022-10-17T14:17:16.005Z,101691.01
2022-10-17T14:20:40.877Z,101692.66
2022-10-17T14:23:36.663Z,101692.86
2022-10-17T14:26:27.099Z,101684.83
2022-10-17T14:29:24.742Z,101689.38
2022-10-17T14:32:15.010Z,101687.63
2022-10-17T14:35:40.370Z,101676.86
2022-10-17T14:38:27.830Z,101678.96
2022-10-17T14:41:41.774Z,101679.14
2022-10-17T14:44:35.061Z,101671.33
2022-10-17T14:47:44.100Z,101674.13
2022-10-17T14:50:35.834Z,101669.52
2022-10-17T14:53:27.921Z,101667.90
2022-10-17T14:56:25.775Z,101665.61
2022-10-17T14:59:30.158Z,101664.38
2022-10-17T15:02:30.123Z,101659.54
2022-10-17T15:05:22.621Z,101655.88
2022-10-17T15:08:14.719Z,101653.73
2022-10-17T15:11:05.155Z,101653.01
2022-10-17T15:13:55.681Z,101648.64
2022-10-17T15:16:45.790Z,101647.91
2022-10-17T15:19:35.781Z,101645.71
2022-10-17T15:22:26.545Z,101642.39
2022-10-17T15:25:17.198Z,101646.55
2022-10-17T15:28:07.805Z,101652.88
2022-10-17T15:31:02.158Z,101655.38
2022-10-17T15:33:53.837Z,101659.67
2022-10-17T15:36:51.998Z,101654.95
2022-10-17T15:39:42.413Z,101654.91
2022-10-17T15:42:32.581Z,101652.98
2022-10-17T15:45:23.086Z,101649.25
2022-10-17T15:48:22.694Z,101647.52
2022-10-17T15:51:13.236Z,101644.55
2022-10-17T15:54:05.361Z,101642.25
2022-10-17T15:56:55.785Z,101643.32
2022-10-17T15:59:49.865Z,101647.45
2022-10-17T16:02:40.252Z,101649.68
2022-10-17T16:05:30.618Z,101647.98
2022-10-17T16:08:21.024Z,101648.03
2022-10-17T16:11:16.338Z,101649.83
2022-10-17T16:14:08.035Z,101651.13
2022-10-17T16:16:58.613Z,101656.29
2022-10-17T16:19:48.726Z,101655.26
2022-10-17T16:22:40.277Z,101654.85
2022-10-17T16:25:31.503Z,101657.45
2022-10-17T16:28:22.741Z,101654.83
2022-10-17T16:31:21.448Z,101655.63
2022-10-17T16:34:13.333Z,101655.68
2022-10-17T16:37:03.770Z,101652.28
2022-10-17T16:39:54.231Z,101652.65
2022-10-17T16:42:44.355Z,101652.98
2022-10-17T16:45:34.600Z,101656.74
2022-10-17T16:48:29.625Z,101657.84
2022-10-17T16:51:20.742Z,101660.75
2022-10-17T16:54:10.921Z,101662.65
2022-10-17T16:57:01.737Z,101663.98
2022-10-17T16:59:52.138Z,101663.45
2022-10-17T17:02:42.063Z,101665.23
2022-10-17T17:05:32.136Z,101664.39
2022-10-17T17:08:22.228Z,101660.41
2022-10-17T17:11:13.913Z,101661.44
2022-10-17T17:14:04.413Z,101662.02
2022-10-17T17:16:54.933Z,101665.02
2022-10-17T17:19:45.272Z,101669.08
2022-10-17T17:22:35.619Z,101665.19
2022-10-17T17:25:27.078Z,101664.45
2022-10-17T17:28:17.507Z,101666.55
2022-10-17T17:31:09.676Z,101672.15
2022-10-17T17:34:00.379Z,101675.09
2022-10-17T17:36:51.670Z,101666.84
2022-10-17T17:39:43.266Z,101665.73
2022-10-17T17:42:33.442Z,101672.46
2022-10-17T17:45:23.605Z,101673.45
2022-10-17T17:48:15.107Z,101662.41
2022-10-17T17:51:06.696Z,101655.12
2022-10-17T17:53:57.234Z,101651.79
2022-10-17T17:56:47.855Z,101650.59
2022-10-17T17:59:40.624Z,101655.52
2022-10-17T18:02:31.224Z,101651.58
2022-10-17T18:05:22.021Z,101650.98
2022-10-17T18:08:12.311Z,101644.77
2022-10-17T18:11:03.717Z,101645.13
2022-10-17T18:13:56.707Z,101639.92
2022-10-17T18:16:47.033Z,101638.36
2022-10-17T18:19:37.692Z,101639.89
2022-10-17T18:22:28.368Z,101642.20
2022-10-17T18:25:18.962Z,101643.89
2022-10-17T18:28:09.404Z,101641.36
2022-10-17T18:31:14.655Z,101643.16
2022-10-17T18:34:05.670Z,101644.55
2022-10-17T18:36:59.375Z,101646.02
2022-10-17T18:39:52.206Z,101645.33
2022-10-17T18:42:44.752Z,101646.11
2022-10-17T18:45:40.058Z,101645.41
2022-10-17T18:48:30.664Z,101646.05
2022-10-17T18:51:24.604Z,101642.65
2022-10-17T18:54:19.963Z,101640.74
2022-10-17T18:57:11.375Z,101637.15
2022-10-17T19:00:10.282Z,101634.96
2022-10-17T19:03:02.407Z,101636.23
2022-10-17T19:05:54.869Z,101633.02
2022-10-17T19:08:52.749Z,101633.48
2022-10-17T19:11:50.251Z,101630.98
2022-10-17T19:14:44.928Z,101632.52
2022-10-17T19:17:35.480Z,101627.48
2022-10-17T19:20:29.207Z,101623.39
2022-10-17T19:23:19.579Z,101619.50
2022-10-17T19:26:12.395Z,101616.68
2022-10-17T19:29:05.331Z,101615.05
2022-10-17T19:32:00.675Z,101612.30
2022-10-17T19:39:33.603Z,101611.09
2022-10-17T19:42:30.424Z,101610.45
2022-10-17T19:45:21.167Z,101603.77
2022-10-17T19:48:11.446Z,101604.73
2022-10-17T19:51:03.458Z,101602.98
2022-10-17T19:53:54.819Z,101610.46
2022-10-17T19:56:45.130Z,101612.27
2022-10-17T19:59:35.543Z,101612.96
2022-10-17T20:02:26.029Z,101611.95
2022-10-17T20:05:19.254Z,101606.81
2022-10-17T20:08:10.495Z,101604.94
2022-10-17T20:11:13.366Z,101605.39
2022-10-17T20:14:03.960Z,101606.00
2022-10-17T20:16:55.719Z,101605.56
2022-10-17T20:19:46.602Z,101604.10
2022-10-17T20:22:37.136Z,101603.02
2022-10-17T20:25:27.717Z,101597.36
2022-10-17T20:28:18.150Z,101597.74
2022-10-17T20:31:08.597Z,101595.13
2022-10-17T20:33:59.670Z,101592.70
2022-10-17T20:36:50.189Z,101593.92
2022-10-17T20:39:40.705Z,101597.16
2022-10-17T20:42:31.420Z,101605.22
2022-10-17T20:45:37.279Z,101603.56
2022-10-17T20:48:33.311Z,101605.70
2022-10-17T20:51:23.984Z,101603.81
2022-10-17T20:54:14.453Z,101601.21
2022-10-17T20:57:05.517Z,101602.30
2022-10-17T20:59:58.401Z,101596.50
2022-10-17T21:02:49.131Z,101593.20
2022-10-17T21:05:42.694Z,101589.02
2022-10-17T21:08:33.217Z,101587.27
2022-10-17T21:11:27.495Z,101587.67
2022-10-17T21:14:17.654Z,101583.86
2022-10-17T21:17:08.143Z,101585.88
2022-10-17T21:19:58.482Z,101586.48
2022-10-17T21:22:48.773Z,101583.31
2022-10-17T21:25:40.777Z,101582.89
2022-10-17T21:28:32.023Z,101583.70
2022-10-17T21:31:23.573Z,101585.23
2022-10-17T21:34:16.946Z,101581.14
2022-10-17T21:37:07.570Z,101584.10
2022-10-17T21:39:57.608Z,101587.14
2022-10-17T21:42:47.663Z,101587.90
2022-10-17T21:45:38.649Z,101583.61
2022-10-17T21:48:28.627Z,101586.02
2022-10-17T21:51:20.777Z,101589.89
2022-10-17T21:54:10.909Z,101592.33
2022-10-17T21:57:00.950Z,101591.48
2022-10-17T21:59:51.210Z,101593.95
2022-10-17T22:02:41.141Z,101599.36
2022-10-17T22:05:32.193Z,101604.26
2022-10-17T22:08:22.213Z,101610.56
2022-10-17T22:11:13.909Z,101606.39
2022-10-17T22:14:05.490Z,101610.40
2022-10-17T22:16:55.613Z,101603.23
2022-10-17T22:19:45.640Z,101597.91
2022-10-17T22:22:35.759Z,101589.70
2022-10-17T22:25:25.708Z,101597.34
2022-10-17T22:28:15.602Z,101599.77
2022-10-17T22:31:05.919Z,101599.84
2022-10-17T22:33:56.367Z,101599.30
2022-10-17T22:36:48.292Z,101593.95
2022-10-17T22:39:38.425Z,101595.09
2022-10-17T22:42:30.833Z,101598.81
2022-10-17T22:45:20.835Z,101593.10
2022-10-17T22:48:10.870Z,101589.96
2022-10-17T22:51:01.080Z,101593.09
2022-10-17T22:53:51.240Z,101591.02
2022-10-17T22:56:41.286Z,101588.05
2022-10-17T22:59:31.393Z,101591.39
2022-10-17T23:02:21.774Z,101590.90
2022-10-17T23:05:11.845Z,101589.13
2022-10-17T23:08:01.784Z,101585.67
2022-10-17T23:10:51.828Z,101584.23
2022-10-17T23:13:41.837Z,101578.85
2022-10-17T23:16:31.861Z,101575.25
2022-10-17T23:19:22.154Z,101575.10
2022-10-17T23:22:12.152Z,101573.34
2022-10-17T23:25:02.626Z,101574.84
2022-10-17T23:27:52.660Z,101576.57
2022-10-17T23:30:42.717Z,101572.80
2022-10-17T23:33:32.800Z,101572.96
2022-10-17T23:36:22.929Z,101569.98
2022-10-17T23:39:13.054Z,101567.81
2022-10-17T23:42:03.081Z,101558.88
2022-10-17T23:44:53.697Z,101554.75
2022-10-17T23:47:43.676Z,101557.05
2022-10-17T23:50:33.673Z,101557.41
2022-10-17T23:53:23.797Z,101554.58
2022-10-17T23:56:13.981Z,101553.15
2022-10-17T23:59:04.033Z,101551.94
